Time;durP1;ratioP1;P1;durP2;ratioP2;P2;SDS_P1;SDS_P2;PMS_P1;PMS_P2;Temp;Humidity;BMP_temperature;BMP_pressure;BME280_temperature;BME280_humidity;BME280_pressure;Samples;Min_cycle;Max_cycle;Signal;HPM_P1;HPM_P2
2022/06/11 00:01:44;;;;;;;;;;;;;;;;;;;;;
2022/06/11 00:04:29;;;;;;;;;;;;;;;;;;;;;
2022/06/11 00:07:12;;;;;;;;;5.00;3.00;;;;;19.59;100.00;100537.28;6362991;22;45629;-95
2022/06/11 00:10:04;;;;;;;;;;;;;;;;;;;;;
2022/06/11 00:12:48;;;;;;;;;2.00;2.00;;;;;19.58;100.00;100526.63;6366806;22;75112;-95
2022/06/11 00:15:30;;;;;;;;;;;;;;;;;;;;;
2022/06/11 00:18:12;;;;;;;;;6.00;5.33;;;;;19.43;100.00;100510.56;6366474;22;70267;-94
2022/06/11 00:21:05;;;;;;;;;3.67;3.67;;;;;19.43;100.00;100512.38;6375888;22;45144;-95
2022/06/11 00:24:10;;;;;;;;;;;;;;;;;;;;;
2022/06/11 00:27:03;;;;;;;;;2.67;2.67;;;;;19.43;100.00;100518.56;6373639;22;71940;-94
2022/06/11 00:29:40;;;;;;;;;6.00;3.67;;;;;19.38;100.00;100511.47;6307022;22;45464;-95
2022/06/11 00:32:13;;;;;;;;;3.67;3.67;;;;;19.48;100.00;100536.34;6306730;22;45571;-95
2022/06/11 00:35:22;;;;;;;;;5.00;4.33;;;;;19.47;100.00;100537.22;6306014;22;46944;-94
2022/06/11 00:38:27;;;;;;;;;;;;;;;;;;;;;
2022/06/11 00:40:56;;;;;;;;;4.00;2.67;;;;;19.32;100.00;100520.28;6331644;22;69528;-94
2022/06/11 00:43:47;;;;;;;;;3.00;3.00;;;;;19.36;100.00;100531.81;6305801;22;45921;-94
2022/06/11 00:46:49;;;;;;;;;2.67;2.67;;;;;19.37;100.00;100533.63;6307155;22;47589;-94
2022/06/11 00:49:39;;;;;;;;;4.33;3.00;;;;;19.29;100.00;100528.25;6306701;22;45411;-93
2022/06/11 00:52:41;;;;;;;;;3.00;2.00;;;;;19.28;100.00;100523.81;6306696;22;45409;-95
2022/06/11 00:55:22;;;;;;;;;3.00;3.00;;;;;19.10;100.00;100502.41;6306531;22;45319;-93
2022/06/11 00:58:06;;;;;;;;;5.33;5.00;;;;;19.25;100.00;100532.66;6310285;22;47915;-94
2022/06/11 01:01:17;;;;;;;;;;;;;;;;;;;;;
2022/06/11 01:03:51;;;;;;;;;4.67;4.00;;;;;19.05;100.00;100506.81;6187952;23;68583;-93
2022/06/11 01:06:52;;;;;;;;;;;;;;;;;;;;;
2022/06/11 01:09:29;;;;;;;;;3.00;2.67;;;;;19.06;100.00;100523.66;6208180;22;73583;-94
2022/06/11 01:12:13;;;;;;;;;2.67;2.67;;;;;19.14;100.00;100531.69;6183520;22;45276;-94
2022/06/11 01:15:38;;;;;;;;;5.67;4.33;;;;;19.01;100.00;100510.34;6208453;22;45459;-94
2022/06/11 01:18:48;;;;;;;;;3.00;3.00;;;;;18.90;100.00;100501.38;6154214;22;45688;-94
2022/06/11 01:21:38;;;;;;;;;4.00;4.00;;;;;18.99;100.00;100523.59;6209478;22;47291;-95
2022/06/11 01:24:46;;;;;;;;;4.00;4.00;;;;;18.92;100.00;100511.16;6184340;22;45706;-94
2022/06/11 01:27:43;;;;;;;;;6.00;4.00;;;;;18.85;100.00;100510.22;6124683;23;45424;-95
2022/06/11 01:30:40;;;;;;;;;3.67;3.00;;;;;18.80;100.00;100503.09;6150160;23;45344;-94
2022/06/11 01:33:40;;;;;;;;;3.00;3.00;;;;;18.92;100.00;100524.44;6124418;23;47130;-95
2022/06/11 01:36:13;;;;;;;;;2.67;2.67;;;;;18.89;100.00;100524.41;6153089;23;45312;-95
2022/06/11 01:39:26;;;;;;;;;4.00;4.00;;;;;18.89;100.00;100526.22;6158103;23;45612;-94
2022/06/11 01:42:44;;;;;;;;;;;;;;;;;;;;;
2022/06/11 01:45:30;;;;;;;;;4.00;4.00;;;;;18.70;100.00;100505.69;6242030;22;75231;-95
2022/06/11 01:48:03;;;;;;;;;5.00;3.00;;;;;18.71;100.00;100512.78;6240082;22;45447;-95
2022/06/11 01:51:10;;;;;;;;;;;;;;;;;;;;;
2022/06/11 01:57:50;;;;;;;;;3.67;3.67;;;;;18.77;100.00;100541.19;6059980;23;45990;-95
2022/06/11 02:00:19;;;;;;;;;5.00;4.00;;;;;18.71;100.00;100531.38;6060843;23;45318;-95
2022/06/11 02:03:04;;;;;;;;;4.33;3.67;;;;;18.73;100.00;100540.28;6062219;23;45475;-94
2022/06/11 02:06:02;;;;;;;;;4.00;3.00;;;;;18.72;100.00;100538.50;6119731;23;45382;-94
2022/06/11 02:09:17;;;;;;;;;;;;;;;;;;;;;
2022/06/11 02:11:51;;;;;;;;;3.67;3.00;;;;;18.69;100.00;100542.88;6060835;23;72973;-95
2022/06/11 02:14:46;;;;;;;;;;;;;;;;;;;;;
2022/06/11 02:17:28;;;;;;;;;4.67;4.67;;;;;18.54;100.00;100520.63;6068302;23;69367;-94
2022/06/11 02:20:16;;;;;;;;;3.33;3.33;;;;;18.63;100.00;100530.44;6045270;23;47301;-95
2022/06/11 02:23:32;;;;;;;;;;;;;;;;;;;;;
2022/06/11 02:26:17;;;;;;;;;;;;;;;;;;;;;
2022/06/11 02:29:36;;;;;;;;;;;;;;;;;;;;;
2022/06/11 02:32:26;;;;;;;;;4.33;3.33;;;;;18.42;100.00;100510.78;6064147;23;75642;-95
2022/06/11 02:35:54;;;;;;;;;;;;;;;;;;;;;
2022/06/11 02:42:17;;;;;;;;;5.00;3.00;;;;;18.49;100.00;100541.84;6120378;23;45979;-94
2022/06/11 02:45:22;;;;;;;;;3.00;2.33;;;;;18.31;100.00;100514.22;6185171;22;47080;-95
2022/06/11 02:48:10;;;;;;;;;;;;;;;;;;;;;
2022/06/11 02:50:36;;;;;;;;;3.67;3.67;;;;;18.36;100.00;100530.19;6239657;22;69347;-94
2022/06/11 02:53:26;;;;;;;;;5.00;5.00;;;;;18.40;100.00;100544.41;6254174;22;45476;-95
2022/06/11 02:56:15;;;;;;;;;7.00;4.00;;;;;18.34;100.00;100531.97;6256836;22;46899;-94
2022/06/11 02:59:06;;;;;;;;;;;;;;;;;;;;;
2022/06/11 03:02:12;;;;;;;;;2.33;2.33;;;;;18.20;100.00;100519.41;6191041;23;68856;-93
2022/06/11 03:04:49;;;;;;;;;3.67;3.67;;;;;18.31;100.00;100543.44;6163245;23;45176;-94
2022/06/11 03:07:47;;;;;;;;;;;;;;;;;;;;;
2022/06/11 03:10:36;;;;;;;;;3.67;3.67;;;;;18.15;100.00;100530.84;6190006;23;71762;-95
2022/06/11 03:13:12;;;;;;;;;3.00;3.00;;;;;18.20;100.00;100543.34;6183704;23;45294;-94
2022/06/11 03:15:37;;;;;;;;;4.00;3.00;;;;;18.18;100.00;100544.16;6188690;23;45338;-94
2022/06/11 03:18:08;;;;;;;;;6.33;3.67;;;;;18.13;100.00;100538.81;6198617;22;47671;-94
2022/06/11 03:20:51;;;;;;;;;;;;;;;;;;;;;
2022/06/11 03:23:50;;;;;;;;;4.00;3.67;;;;;18.03;100.00;100527.19;6217075;22;70176;-95
2022/06/11 03:27:18;;;;;;;;;4.33;4.33;;;;;18.18;100.00;100561.00;6166184;22;45254;-95
2022/06/11 03:43:10;;;;;;;;;;;;;;;;;;;;;
2022/06/11 03:46:32;;;;;;;;;;;;;;;;;;;;;
2022/06/11 03:49:14;;;;;;;;;4.33;4.33;;;;;17.98;100.00;100558.13;5970783;23;69312;-94
2022/06/11 03:56:03;;;;;;;;;;;;;;;;;;;;;
2022/06/11 03:58:55;;;;;;;;;;;;;;;;;;;;;
2022/06/11 04:01:24;;;;;;;;;4.00;4.00;;;;;17.95;100.00;100574.91;6008801;23;68122;-94
2022/06/11 04:04:50;;;;;;;;;5.67;5.00;;;;;18.11;100.00;100593.69;6031771;23;44942;-94
2022/06/11 04:07:38;;;;;;;;;5.00;4.33;;;;;17.98;100.00;100574.06;5995630;23;47337;-94
2022/06/11 04:10:08;;;;;;;;;5.67;4.67;;;;;18.01;100.00;100574.09;5974686;23;45302;-93
2022/06/11 04:13:02;;;;;;;;;;;;;;;;;;;;;
2022/06/11 04:16:12;;;;;;;;;5.67;3.00;;;;;18.06;100.00;100584.75;5951409;23;69112;-94
2022/06/11 04:19:42;;;;;;;;;;;;;;;;;;;;;
2022/06/11 04:25:46;;;;;;;;;;;;;;;;;;;;;
2022/06/11 04:28:15;;;;;;;;;5.00;5.00;;;;;18.32;100.00;100626.72;6035450;23;69101;-94
2022/06/11 04:31:14;;;;;;;;;6.00;6.00;;;;;18.30;100.00;100613.38;6035919;23;45698;-94
2022/06/11 04:33:48;;;;;;;;;5.00;5.00;;;;;18.31;100.00;100612.53;6031417;23;45551;-94
2022/06/11 04:36:21;;;;;;;;;7.00;3.33;;;;;18.29;100.00;100608.97;6005863;23;45315;-94
2022/06/11 04:38:49;;;;;;;;;6.33;5.00;;;;;18.41;100.00;100618.81;6031017;23;45427;-95
2022/06/11 04:41:15;;;;;;;;;6.67;5.00;;;;;18.43;100.00;100616.16;6031481;23;46627;-94
2022/06/11 04:44:15;;;;;;;;;5.33;5.33;;;;;18.51;100.00;100630.44;6071039;23;45452;-95
2022/06/11 04:47:05;;;;;;;;;8.33;5.00;;;;;18.53;100.00;100627.78;6094443;23;45552;-94
2022/06/11 04:49:29;;;;;;;;;6.00;4.00;;;;;18.53;100.00;100617.16;6097410;23;45174;-94
2022/06/11 04:51:55;;;;;;;;;4.00;3.00;;;;;18.61;100.00;100622.56;6094411;23;47832;-95
2022/06/11 04:54:20;;;;;;;;;4.33;4.33;;;;;18.60;100.00;100619.03;6064197;23;45260;-95
2022/06/11 04:56:55;;;;;;;;;5.00;5.00;;;;;18.69;100.00;100630.59;6207894;22;45622;-94
2022/06/11 04:59:26;;;;;;;;;6.00;5.00;;;;;18.80;100.00;100638.69;6182829;22;45267;-94
2022/06/11 05:02:17;;;;;;;;;4.67;4.67;;;;;18.70;100.00;100603.16;6203446;22;47139;-94
2022/06/11 05:20:52;;;;;;;;;6.67;4.33;;;;;19.12;100.00;100603.47;6331057;22;44776;-93
2022/06/11 05:38:00;;;;;;;;;6.00;6.00;;;;;19.63;100.00;100594.09;6325290;22;45779;-93
2022/06/11 05:40:30;;;;;;;;;4.67;4.67;;;;;19.71;100.00;100597.69;6306753;22;45382;-93
2022/06/11 05:42:56;;;;;;;;;5.67;5.67;;;;;19.67;100.00;100571.03;6307335;22;45215;-95
2022/06/11 05:45:27;;;;;;;;;3.33;3.33;;;;;19.87;100.00;100584.41;6306115;22;46919;-94
2022/06/11 05:47:55;;;;;;;;;5.00;4.00;;;;;19.96;100.00;100587.13;6306491;22;45404;-93
2022/06/11 05:50:27;;;;;;;;;7.33;5.00;;;;;20.07;100.00;100586.28;6306410;22;45482;-93
2022/06/11 05:52:54;;;;;;;;;4.67;3.00;;;;;20.05;100.00;100572.94;6334400;22;45379;-93
2022/06/11 05:55:24;;;;;;;;;7.00;5.33;;;;;20.08;100.00;100562.31;6334121;22;46338;-89
2022/06/11 05:57:51;;;;;;;;;6.33;6.33;;;;;20.09;100.00;100572.09;6332854;22;46208;-93
2022/06/11 06:00:19;;;;;;;;;5.00;5.00;;;;;20.05;100.00;100572.94;6306864;22;45372;-92
2022/06/11 06:02:45;;;;;;;;;6.67;5.00;;;;;20.00;100.00;100569.38;6338097;22;45694;-92
2022/06/11 06:05:13;;;;;;;;;4.00;4.00;;;;;20.02;100.00;100582.72;6337184;22;45973;-91
2022/06/11 06:07:39;;;;;;;;;4.00;4.00;;;;;20.06;100.00;100584.50;6342789;22;45312;-92
2022/06/11 06:10:04;;;;;;;;;3.67;3.67;;;;;20.13;100.00;100586.31;6338416;22;46095;-91
2022/06/11 06:12:32;;;;;;;;;3.67;3.67;;;;;20.14;100.00;100580.13;6337948;22;45295;-91
2022/06/11 06:15:14;;;;;;;;;7.67;5.00;;;;;20.10;100.00;100575.66;6334607;22;47069;-92
2022/06/11 06:17:40;;;;;;;;;4.00;4.00;;;;;20.08;100.00;100578.28;6337263;22;45320;-92
2022/06/11 06:20:08;;;;;;;;;7.33;4.00;;;;;20.07;100.00;100578.28;6309137;22;45312;-93
2022/06/11 06:22:34;;;;;;;;;6.33;4.00;;;;;20.06;100.00;100584.50;6308446;22;45169;-93
2022/06/11 06:25:00;;;;;;;;;4.67;4.00;;;;;20.07;100.00;100584.50;6340010;22;47506;-92
2022/06/11 06:27:26;;;;;;;;;5.33;4.33;;;;;20.05;100.00;100585.41;6338218;22;45314;-95
2022/06/11 06:29:52;;;;;;;;;6.67;4.00;;;;;20.04;100.00;100584.50;6338766;22;45456;-92
2022/06/11 06:32:17;;;;;;;;;5.33;3.33;;;;;20.06;100.00;100581.81;6310109;22;45423;-92
2022/06/11 06:34:43;;;;;;;;;4.33;4.33;;;;;20.08;100.00;100588.03;6308947;22;48422;-92
2022/06/11 06:37:09;;;;;;;;;6.33;4.00;;;;;20.06;100.00;100587.16;6310976;22;45711;-91
2022/06/11 06:39:34;;;;;;;;;3.67;3.00;;;;;20.09;100.00;100582.75;6314523;22;45757;-92
2022/06/11 06:42:00;;;;;;;;;4.00;4.00;;;;;20.10;100.00;100583.63;6317753;22;45233;-93
2022/06/11 06:44:25;;;;;;;;;3.00;3.00;;;;;20.15;100.00;100595.19;6346104;22;45440;-93
2022/06/11 06:46:51;;;;;;;;;2.00;2.00;;;;;20.27;100.00;100594.38;6314935;22;50352;-95
2022/06/11 06:49:17;;;;;;;;;3.33;3.00;;;;;20.49;100.00;100601.50;6306211;22;45535;-92
2022/06/11 06:51:42;;;;;;;;;3.67;2.00;;;;;20.67;100.00;100600.63;6305315;22;45352;-93
2022/06/11 06:54:08;;;;;;;;;1.00;1.00;;;;;20.87;100.00;100600.63;6308111;22;46526;-92
2022/06/11 06:56:33;;;;;;;;;2.00;2.00;;;;;21.02;100.00;100590.00;6313314;22;45350;-94
2022/06/11 06:59:04;;;;;;;;;5.67;3.00;;;;;21.14;100.00;100581.09;6309876;22;45271;-94
2022/06/11 07:01:30;;;;;;;;;1.67;1.00;;;;;21.20;100.00;100583.75;6312638;22;45837;-94
2022/06/11 07:03:57;;;;;;;;;2.00;2.00;;;;;21.33;100.00;100584.63;6337509;22;45990;-90
2022/06/11 07:06:23;;;;;;;;;5.33;3.00;;;;;21.44;100.00;100576.59;6339977;22;45324;-93
2022/06/11 07:08:53;;;;;;;;;2.33;2.33;;;;;21.58;100.00;100589.00;6314082;22;45322;-92
2022/06/11 07:11:19;;;;;;;;;2.00;2.00;;;;;21.69;100.00;100580.97;6342459;22;45285;-93
2022/06/11 07:13:45;;;;;;;;;2.00;2.00;;;;;21.79;100.00;100574.69;6341575;22;46411;-94
2022/06/11 07:16:13;;;;;;;;;2.00;1.67;;;;;21.94;100.00;100579.09;6315149;22;45333;-91
2022/06/11 07:18:42;;;;;;;;;4.00;3.00;;;;;22.06;100.00;100579.97;6313490;22;45175;-92
2022/06/11 07:21:16;;;;;;;;;2.33;2.33;;;;;22.11;100.00;100580.81;6341693;22;45283;-90
2022/06/11 07:24:05;;;;;;;;;3.00;2.00;;;;;22.17;100.00;100586.13;6314328;22;47421;-93
2022/06/11 07:26:36;;;;;;;;;5.33;3.00;;;;;22.31;100.00;100586.03;6348124;22;45338;-96
2022/06/11 07:29:09;;;;;;;;;3.33;2.67;;;;;22.44;100.00;100585.97;6346097;22;45261;-95
2022/06/11 07:31:34;;;;;;;;;1.00;1.00;;;;;22.55;100.00;100578.72;6347146;22;45155;-96
2022/06/11 07:34:00;;;;;;;;;2.67;2.67;;;;;22.66;100.00;100584.00;6342124;22;45297;-96
2022/06/11 07:36:26;;;;;;;;;3.00;1.00;;;;;22.74;100.00;100588.44;6313926;22;45387;-95
2022/06/11 07:38:51;;;;;;;;;3.00;2.00;;;;;22.82;100.00;100591.03;6342524;22;45183;-96
2022/06/11 07:41:17;;;;;;;;;2.00;1.67;;;;;22.87;100.00;100584.75;6340441;22;45170;-95
2022/06/11 07:43:42;;;;;;;;;3.33;3.00;;;;;22.94;100.00;100582.91;6315195;22;47040;-95
2022/06/11 07:46:07;;;;;;;;;2.00;2.00;;;;;22.97;100.00;100580.22;6317031;22;45187;-95
2022/06/11 07:48:33;;;;;;;;;2.33;1.00;;;;;23.07;100.00;100591.72;6315939;22;60610;-96
2022/06/11 07:50:58;;;;;;;;;2.00;2.00;;;;;23.15;100.00;100583.59;6345556;22;45252;-96
2022/06/11 07:53:23;;;;;;;;;2.67;2.67;;;;;23.22;100.00;100576.41;6344211;22;47449;-96
2022/06/11 07:55:51;;;;;;;;;3.33;3.00;;;;;23.27;100.00;100581.72;6341447;22;45530;-96
2022/06/11 07:58:18;;;;;;;;;3.00;3.00;;;;;23.29;100.00;100585.28;6313143;22;45352;-95
2022/06/11 08:00:50;;;;;;;;;3.00;2.00;;;;;23.37;100.00;100575.38;6315425;22;45305;-95
2022/06/11 08:03:18;;;;;;;;;3.00;3.00;;;;;23.59;100.00;100583.19;6314591;22;47098;-95
2022/06/11 08:05:44;;;;;;;;;3.00;3.00;;;;;23.88;100.00;100583.72;6316901;22;45312;-95
2022/06/11 08:08:11;;;;;;;;;2.67;2.67;;;;;24.07;100.00;100573.63;6309998;22;45226;-94
2022/06/11 08:10:39;;;;;;;;;2.00;1.00;;;;;24.16;100.00;100577.97;6308619;22;45320;-96
2022/06/11 08:13:05;;;;;;;;;1.33;1.33;;;;;24.25;100.00;100582.31;6338277;22;45356;-94
2022/06/11 08:15:31;;;;;;;;;2.00;2.00;;;;;24.41;100.00;100582.13;6335475;22;45653;-94
2022/06/11 08:17:57;;;;;;;;;3.00;1.67;;;;;24.69;100.00;100584.34;6306685;22;45563;-94
2022/06/11 08:20:26;;;;;;;;;3.67;3.67;;;;;25.04;100.00;100581.13;6334502;22;45524;-93
2022/06/11 08:22:52;;;;;;;;;2.33;2.33;;;;;25.32;100.00;100580.63;6335929;22;45355;-95
2022/06/11 08:25:20;;;;;;;;;3.67;2.00;;;;;25.46;100.00;100571.41;6307041;22;45265;-95
2022/06/11 08:27:45;;;;;;;;;2.67;2.67;;;;;25.53;100.00;100579.31;6336006;22;45257;-96
2022/06/11 08:30:19;;;;;;;;;2.00;2.00;;;;;25.63;100.00;100581.81;6336568;22;45411;-96
2022/06/11 08:32:44;;;;;;;;;4.00;2.00;;;;;25.68;100.00;100574.53;6336095;22;45512;-95
2022/06/11 08:35:11;;;;;;;;;1.67;1.67;;;;;25.78;100.00;100588.69;6336156;22;45293;-96
2022/06/11 08:37:37;;;;;;;;;3.33;3.33;;;;;25.84;100.00;100590.38;6335653;22;45465;-96
2022/06/11 08:40:06;;;;;;;;;4.67;3.00;;;;;25.89;100.00;100570.53;6340185;22;45256;-96
2022/06/11 08:42:31;;;;;;;;;4.67;4.00;;;;;26.04;100.00;100581.88;6347317;22;45396;-95
2022/06/11 08:45:02;;;;;;;;;3.67;3.67;;;;;26.25;100.00;100587.69;6344256;22;45204;-95
2022/06/11 08:47:36;;;;;;;;;5.00;4.00;;;;;26.39;100.00;100571.19;6338739;22;45368;-95
2022/06/11 08:50:03;;;;;;;;;3.67;2.33;;;;;26.43;100.00;100572.03;6312919;22;45750;-96
2022/06/11 08:52:29;;;;;;;;;6.00;3.00;;;;;26.39;100.00;100602.63;6338974;22;45659;-95
2022/06/11 08:54:59;;;;;;;;;2.67;2.33;;;;;26.33;100.00;100593.78;6339104;22;45412;-95
2022/06/11 08:57:36;;;;;;;;;6.67;5.00;;;;;26.30;100.00;100592.94;6338581;22;45340;-96
2022/06/11 09:00:19;;;;;;;;;4.67;3.67;;;;;26.25;100.00;100602.94;6310518;22;45524;-96
2022/06/11 09:02:56;;;;;;;;;2.00;2.00;;;;;26.29;100.00;100599.25;6310601;22;47274;-95
2022/06/11 09:05:37;;;;;;;;;4.00;3.00;;;;;26.46;100.00;100595.31;6340763;22;45258;-96
2022/06/11 09:08:23;;;;;;;;;2.00;2.00;;;;;26.46;100.00;100580.06;6313407;22;45229;-96
2022/06/11 09:11:06;;;;;;;;;7.67;7.67;;;;;26.28;100.00;100586.72;6314744;22;45359;-96
2022/06/11 09:14:06;;;;;;;;;3.00;3.00;;;;;26.15;100.00;100581.63;6339849;22;45597;-96
2022/06/11 09:17:03;;;;;;;;;4.00;2.00;;;;;26.11;100.00;100577.22;6216317;22;44904;-96
2022/06/11 09:19:51;;;;;;;;;5.00;3.00;;;;;25.87;100.00;100579.56;6238880;22;45240;-94
2022/06/11 09:22:56;;;;;;;;;3.67;2.00;;;;;25.74;100.00;100590.59;6251595;22;45396;-95
2022/06/11 09:25:49;;;;;;;;;3.00;3.00;;;;;25.81;100.00;100577.00;6252591;22;47412;-96
2022/06/11 09:28:34;;;;;;;;;4.00;3.00;;;;;25.91;100.00;100580.38;6255250;22;45347;-96
2022/06/11 09:31:11;;;;;;;;;3.33;3.33;;;;;25.90;100.00;100582.16;6279719;22;45597;-96
2022/06/11 09:33:37;;;;;;;;;2.33;2.33;;;;;26.04;100.00;100576.50;6252291;22;45474;-96
2022/06/11 09:36:11;;;;;;;;;2.67;2.33;;;;;26.36;100.00;100567.72;6249163;22;47019;-97
2022/06/11 09:39:01;;;;;;;;;3.67;3.67;;;;;26.70;100.00;100592.97;6252421;22;45602;-96
2022/06/11 09:41:46;;;;;;;;;5.00;3.67;;;;;26.94;100.00;100591.44;6258502;22;45345;-96
2022/06/11 09:44:33;;;;;;;;;2.67;2.00;;;;;27.24;100.00;100600.59;6253482;22;45503;-94
2022/06/11 09:47:17;;;;;;;;;1.67;1.67;;;;;27.72;100.00;100579.47;6254561;22;47167;-96
2022/06/11 09:50:03;;;;;;;;;4.00;2.33;;;;;28.28;100.00;100572.41;6281339;22;45218;-95
2022/06/11 09:52:33;;;;;;;;;4.00;3.00;;;;;28.81;100.00;100585.16;6276469;22;45208;-95
2022/06/11 09:55:17;;;;;;;;;2.33;2.33;;;;;30.20;100.00;100568.41;6311897;22;45273;-94
2022/06/11 09:57:50;;;;;;;;;2.00;2.00;;;;;30.77;100.00;100626.59;6282078;22;46264;-95
2022/06/11 10:00:25;;;;;;;;;4.00;3.67;;;;;30.50;100.00;100687.25;6281304;22;45275;-96
2022/06/11 10:06:12;;;;;;;;;3.67;2.00;;;;;31.52;100.00;100712.91;6311986;22;45293;-96
2022/06/11 10:09:02;;;;;;;;;3.00;2.00;;;;;34.00;100.00;100675.63;6306711;22;45551;-94
2022/06/11 10:11:35;;;;;;;;;2.33;2.33;;;;;34.12;100.00;100783.84;6279243;22;45226;-96
2022/06/11 10:14:29;;;;;;;;;5.33;4.00;;;;;34.03;100.00;100893.25;6280426;22;45282;-96
2022/06/11 10:17:36;;;;;;;;;3.67;3.67;;;;;36.45;100.00;100815.06;6318419;22;45362;-96
2022/06/11 10:20:12;;;;;;;;;3.67;2.33;;;;;39.23;100.00;100904.94;6216136;22;45735;-95
2022/06/11 10:22:50;;;;;;;;;4.00;3.00;;;;;41.71;100.00;101648.59;6218835;22;45256;-92
2022/06/11 10:25:19;;;;;;;;;5.00;4.00;;;;;43.78;100.00;101800.34;6185509;22;45382;-95
2022/06/11 10:28:14;;;;;;;;;3.00;3.00;;;;;43.00;92.60;101903.91;6210841;22;45521;-93
2022/06/11 10:36:22;;;;;;;;;5.67;5.67;;;;;37.80;86.61;101899.94;6340291;22;45216;-92
2022/06/11 11:04:52;;;;;;;;;1.00;1.00;;;;;48.91;66.48;101971.81;6254808;22;45164;-96
2022/06/11 11:07:20;;;;;;;;;1.00;1.00;;;;;46.93;63.46;101980.38;6335289;22;45355;-96
2022/06/11 11:09:46;;;;;;;;;3.00;1.00;;;;;46.95;64.73;101978.34;6345704;22;45591;-96
2022/06/11 11:12:22;;;;;;;;;3.00;1.00;;;;;48.58;65.91;101986.22;6346078;22;45574;-95
2022/06/11 11:14:58;;;;;;;;;2.00;2.00;;;;;50.30;63.44;101990.00;6344685;22;44859;-95
2022/06/11 11:17:27;;;;;;;;;1.67;1.67;;;;;51.56;60.95;101998.72;6342452;22;45368;-96
2022/06/11 11:20:50;;;;;;;;;3.00;3.00;;;;;52.92;59.77;101982.19;6312565;22;45269;-96
2022/06/11 11:22:54;;;;;;;;;4.67;4.67;;;;;53.46;57.24;101971.06;6327858;22;45309;-96
2022/06/11 11:25:24;;;;;;;;;2.00;2.00;;;;;53.33;54.46;101982.94;6342250;22;45174;-96
2022/06/11 11:36:00;;;;;;;;;0.00;0.00;;;;;56.41;49.49;101989.78;6304981;22;45852;-96
2022/06/11 11:38:27;;;;;;;;;2.00;2.00;;;;;57.07;48.04;101978.00;6304340;22;45233;-94
2022/06/11 11:40:58;;;;;;;;;1.33;0.67;;;;;57.67;47.14;101990.38;6292526;22;45214;-96
2022/06/11 11:51:27;;;;;;;;;2.00;1.00;;;;;56.78;44.32;101963.25;6293868;22;45250;-95
2022/06/11 11:59:30;;;;;;;;;0.33;0.00;;;;;56.41;42.65;101970.06;6281116;22;45930;-96
2022/06/11 12:20:11;;;;;;;;;0.67;0.67;;;;;61.46;36.35;101973.78;6327827;22;45105;-96
2022/06/11 12:22:49;;;;;;;;;0.00;0.00;;;;;61.73;36.30;101987.44;6293657;22;45070;-94
2022/06/11 12:27:56;;;;;;;;;2.00;0.00;;;;;61.16;35.75;101961.44;6354775;22;45329;-96
2022/06/11 12:49:03;;;;;;;;;0.67;0.67;;;;;53.62;37.19;101923.25;6345084;22;46070;-96
2022/06/11 12:51:32;;;;;;;;;0.00;0.00;;;;;55.11;37.60;101942.13;6345672;22;45258;-96
2022/06/11 12:54:02;;;;;;;;;0.33;0.33;;;;;53.89;36.88;101942.44;6318715;22;45352;-96
2022/06/11 12:59:09;;;;;;;;;0.00;0.00;;;;;52.24;38.14;101939.69;6344004;22;45229;-96
2022/06/11 13:02:29;;;;;;;;;0.67;0.67;;;;;52.69;39.23;101930.66;6323855;22;45068;-96
2022/06/11 13:24:20;;;;;;;;;2.00;0.00;;;;;59.74;34.87;101936.91;6302432;22;45202;-95
2022/06/11 13:34:49;;;;;;;;;2.00;1.00;;;;;58.41;35.46;101902.78;6305126;22;46024;-95
2022/06/11 13:37:47;;;;;;;;;0.33;0.00;;;;;59.39;34.82;101918.53;6355890;22;45177;-96
2022/06/11 13:40:41;;;;;;;;;0.67;0.00;;;;;60.52;34.26;101929.75;6310926;22;47153;-96
2022/06/11 13:43:30;;;;;;;;;2.00;0.00;;;;;61.29;33.59;101912.13;6354561;22;45071;-93
2022/06/11 13:46:04;;;;;;;;;1.00;1.00;;;;;61.91;33.79;101931.66;6379862;22;45239;-96
2022/06/11 13:49:07;;;;;;;;;1.00;1.00;;;;;62.40;32.86;101923.75;6315613;22;45403;-95
2022/06/11 13:52:01;;;;;;;;;2.00;2.00;;;;;62.63;32.12;101907.69;6322532;22;47114;-96
2022/06/11 14:03:11;;;;;;;;;1.00;1.00;;;;;63.36;31.07;101925.88;6287435;22;46199;-96
2022/06/11 14:05:52;;;;;;;;;1.00;1.00;;;;;63.22;31.04;101914.00;6294055;22;44833;-96
2022/06/11 14:11:37;;;;;;;;;1.00;1.00;;;;;60.28;30.08;101911.81;6320892;22;44948;-96
2022/06/11 14:22:49;;;;;;;;;0.00;0.00;;;;;50.29;34.06;101877.47;6351143;22;45570;-96
2022/06/11 14:52:10;;;;;;;;;2.67;2.67;;;;;47.25;39.30;101863.59;6273324;22;46428;-96
2022/06/11 14:57:22;;;;;;;;;12.00;10.00;;;;;43.94;41.82;101832.25;6268975;22;46149;-96
2022/06/11 15:13:15;;;;;;;;;2.33;2.33;;;;;37.76;47.65;101853.53;6343223;22;45316;-96
2022/06/11 15:15:59;;;;;;;;;24.00;22.25;;;;;36.99;49.59;101846.47;6309970;22;45277;-95
2022/06/11 15:18:29;;;;;;;;;25.00;22.00;;;;;36.34;50.79;101839.50;6338783;22;45270;-95
2022/06/11 15:20:59;;;;;;;;;5.67;5.00;;;;;35.78;51.28;101835.66;6308806;22;45312;-94
2022/06/11 15:23:39;;;;;;;;;2.00;1.33;;;;;35.31;52.92;101826.72;6315382;22;45324;-94
2022/06/11 15:26:14;;;;;;;;;3.00;3.00;;;;;34.89;53.15;101832.09;6349568;22;45268;-95
2022/06/11 15:29:11;;;;;;;;;2.00;2.00;;;;;34.50;53.95;101828.19;6347046;22;45408;-94
2022/06/11 15:32:05;;;;;;;;;2.00;1.00;;;;;34.25;54.55;101820.91;6319688;22;45880;-95
2022/06/11 15:34:40;;;;;;;;;33.00;30.25;;;;;34.12;56.67;101807.78;6215869;22;45265;-95
2022/06/11 15:37:25;;;;;;;;;8.33;8.33;;;;;33.87;57.03;101806.00;6244029;22;45571;-96
2022/06/11 15:39:57;;;;;;;;;18.00;16.33;;;;;33.53;56.81;101818.06;6240423;22;47329;-96
2022/06/11 15:42:45;;;;;;;;;5.00;5.00;;;;;33.25;56.57;101819.94;6251415;22;45550;-96
2022/06/11 15:45:26;;;;;;;;;7.00;5.00;;;;;32.96;57.32;101809.06;6249093;22;45295;-96
2022/06/11 15:48:00;;;;;;;;;3.67;3.33;;;;;32.82;59.00;101795.03;6224325;22;45223;-96
2022/06/11 15:50:27;;;;;;;;;12.00;11.00;;;;;32.70;59.14;101790.91;6261077;22;45437;-95
2022/06/11 15:52:58;;;;;;;;;14.50;13.00;;;;;32.55;59.73;101780.44;6262677;22;44915;-93
2022/06/11 15:55:37;;;;;;;;;27.67;25.33;;;;;32.48;59.65;101797.88;6359301;22;45224;-96
2022/06/11 16:03:39;;;;;;;;;57.50;45.75;;;;;31.72;61.15;101776.53;6344236;22;45042;-95
2022/06/11 16:06:25;;;;;;;;;5.33;5.33;;;;;31.33;62.08;101744.09;6329308;22;46084;-96
2022/06/11 16:09:01;;;;;;;;;35.00;31.00;;;;;31.25;61.98;101756.94;6355412;22;45324;-92
2022/06/11 16:11:30;;;;;;;;;12.33;11.33;;;;;31.07;64.24;101731.22;6377866;22;47594;-96
2022/06/11 16:14:15;;;;;;;;;61.50;46.25;;;;;30.80;64.11;101720.13;6330169;22;45153;-96
2022/06/11 16:16:51;;;;;;;;;21.00;18.00;;;;;30.59;64.08;101720.59;6309649;22;45329;-96
2022/06/11 16:19:25;;;;;;;;;23.67;23.67;;;;;30.36;64.69;101696.78;6271640;22;46015;-96
2022/06/11 16:24:35;;;;;;;;;20.00;18.67;;;;;30.06;66.69;101665.81;6283915;22;45272;-96
2022/06/11 16:29:44;;;;;;;;;6.00;5.00;;;;;29.91;68.02;101647.22;6255245;22;45864;-96
2022/06/11 16:34:46;;;;;;;;;3.67;3.67;;;;;29.52;68.20;101649.78;6343022;22;44813;-96
2022/06/11 16:42:48;;;;;;;;;7.00;7.00;;;;;29.20;69.80;101597.25;6351937;22;45298;-96
2022/06/11 16:45:20;;;;;;;;;3.00;3.00;;;;;29.19;70.16;101603.59;6317524;22;45321;-94
2022/06/11 16:47:52;;;;;;;;;12.00;11.00;;;;;29.24;70.52;101607.09;6338845;22;45410;-96
2022/06/11 16:56:10;;;;;;;;;11.33;11.33;;;;;29.24;71.41;101593.59;6340513;22;45186;-93
2022/06/11 16:58:46;;;;;;;;;13.67;11.67;;;;;29.20;71.22;101600.84;6333519;22;45300;-93
2022/06/11 17:01:11;;;;;;;;;10.67;10.33;;;;;29.11;71.61;101583.03;6289662;22;45924;-95
2022/06/11 17:03:40;;;;;;;;;17.00;15.00;;;;;28.94;72.29;101560.81;6315258;22;47155;-96
2022/06/11 17:06:06;;;;;;;;;4.00;4.00;;;;;28.94;72.42;101550.00;6318355;22;45490;-96
2022/06/11 17:08:41;;;;;;;;;72.25;57.50;;;;;28.83;72.61;101551.09;6317853;22;45315;-96
2022/06/11 17:11:10;;;;;;;;;5.33;4.33;;;;;28.77;72.32;101559.31;6348595;22;45158;-95
2022/06/11 17:13:44;;;;;;;;;101.67;93.00;;;;;28.64;73.18;101531.63;6312254;22;46335;-96
2022/06/11 17:16:15;;;;;;;;;73.75;61.75;;;;;28.65;73.18;101555.94;6342592;22;44690;-96
2022/06/11 17:19:00;;;;;;;;;30.75;30.25;;;;;28.51;74.35;101515.66;6342109;22;45382;-91
2022/06/11 17:21:36;;;;;;;;;71.00;61.50;;;;;28.43;74.15;101512.16;6302516;22;45476;-96
2022/06/11 17:24:11;;;;;;;;;24.67;22.33;;;;;28.43;73.92;101525.66;6314250;22;46947;-92